Terminal Aerodrome Forecast
Issued by NWS

Home | Current Version | Previous Version | Text Only | Print | Product List | Glossary On
Versions: 1 2 3 4 5 6 7 8 9 10 11 12 13 14 15 16 17
000
FTUS44 KMAF 251100
TAFCNM
TAF
KCNM 251124Z 2512/2612 VRB04KT P6SM BKN200
     FM251800 20013KT P6SM BKN200
     FM260000 17006KT P6SM BKN150=

USA.gov is the U.S. government's official web portal to all federal, state and local government web resources and services.